CMB weather

Bandaranaike International Colombo Airport
Colombo, Western Province, Sri Lanka

Public forecast

Using degrees Celsius for public forecast. Weather courtesy of forecast.io.

METAR (pilot weather report)

Retrieved 2018/05/23 16:10 UTC (18 minutes ago):

VCBI 231610Z 15005KT 130V190 9000 SCT017 23/22 Q1008 NOSIG

TAF (pilot weather forecast)

Forecast is more than 12 hours old.

Retrieved 2018/04/25 06:59 UTC (28 days ago):

TAF VCBI 250340Z 2506/2612 26010KT 9999 FEW018 TX32/2507Z TN25/2600Z PROB30 TEMPO 2515/2518 6000 -TSRA/SHRA SCT016 FEW018CB BECMG 2515/2517 16006KT